Lacey, Arkansas
Current Conditions -  °F | °C
As of 5:53 PM on Thursday 25 Dec 2014 (Local Time) from KLLQ Reporting Station
Clear Clear  
Wind Chill: 47°   Ceiling: Unl
Heat Index: 49°   Visibility: 10mi
Dew Point: 38°   Wind: 6mph
Humidity: 66%   Direction: 170°S
Pressure: 30.1"   Gusts: NA
Location:  33.5819°N, 91.7907°W
Report Text: KLLQ 252353Z AUTO 17005KT 10SM CLR 09/03 A3010 RMK AO2 SLP194 T00940033 10144 20094 55000
Loading
Personal Weather Stations






























Interactive Weather Map New forecast layout! Learn more

10-Day Weather Forecast

Advertisements
Track Severe Weather on mobile